Pagina principală
METAR-TAF:

METAR-TAF

Aeroporturi :

Weipa, Australia

Latitudine: 12-40-43S, longitudine: 141-55-31E, elevație: 19 m

Observații meteo curente

Raportul a fost făcut în urmă cu 1 oră și 0 de minute, la 15:00 UTC
Vânt 5 kt de la Est
Temperatură 25°C
Umiditate 89%
Presiune 1010 hPa
Vizibilitate de 10 km sau mai mult

METAR: YBWP 081500Z AUTO 09005KT 9999 // NCD 25/23 Q1010

Ora: 02:00 (16:00 UTC)


TAF: lipsă

Observații și prognoze meteo pentru peste 4.000 de aeroporturi (rapoarte METAR și TAF).

Stațiile disponibile sunt reprezentate pe hartă prin puncte galbene și roșii.

Țineți indicatorul mouse-ului pe punctul dorit pentru a vedea denumirea stației.

Apoi, faceți clic pentru a vedea observațiile și prognozele meteorologice.

Pentru a schimba harta: Pentru mărire, faceți clic pe butoanele verzi cu cruce neagră; pentru micșorare, pe butonul verde cu o liniuță; pentru hărți învecinate, pe săgețile verzi.


METAR-TAF: